createdAt,value
2019-02-08T00:01:47.264Z,1.20
2019-02-08T00:04:18.201Z,1.35
2019-02-08T00:06:49.165Z,1.70
2019-02-08T00:09:20.111Z,1.52
2019-02-08T00:11:51.366Z,1.77
2019-02-08T00:14:22.297Z,3.60
2019-02-08T00:16:54.265Z,2.17
2019-02-08T00:19:25.282Z,2.35
2019-02-08T00:21:56.174Z,2.42
2019-02-08T00:24:27.108Z,4.67
2019-02-08T00:26:59.080Z,2.72
2019-02-08T00:29:30.144Z,2.75
2019-02-08T00:32:01.109Z,2.58
2019-02-08T00:34:32.141Z,2.85
2019-02-08T00:37:03.079Z,2.92
2019-02-08T00:39:34.323Z,3.45
2019-02-08T00:42:05.186Z,3.00
2019-02-08T00:44:36.095Z,3.17
2019-02-08T00:47:07.022Z,4.75
2019-02-08T00:49:37.986Z,4.40
2019-02-08T00:52:09.021Z,5.22
2019-02-08T00:54:39.915Z,4.05
2019-02-08T00:57:10.848Z,4.72
2019-02-08T00:59:41.810Z,5.20
2019-02-08T01:02:12.740Z,4.33
2019-02-08T01:04:43.702Z,3.65
2019-02-08T01:07:15.016Z,4.70
2019-02-08T01:09:46.004Z,3.92
2019-02-08T01:12:16.942Z,5.00
2019-02-08T01:14:47.924Z,5.55
2019-02-08T01:17:18.852Z,5.22
2019-02-08T01:19:49.816Z,5.20
2019-02-08T01:22:20.747Z,5.92
2019-02-08T01:24:51.718Z,10.00
2019-02-08T01:27:22.654Z,5.92
2019-02-08T01:29:53.609Z,7.00
2019-02-08T01:32:24.471Z,7.25
2019-02-08T01:34:55.438Z,4.87
2019-02-08T01:37:26.378Z,4.37
2019-02-08T01:39:57.275Z,4.60
2019-02-08T01:42:28.141Z,4.80
2019-02-08T01:44:59.039Z,5.40
2019-02-08T01:47:29.968Z,6.25
2019-02-08T01:50:00.940Z,5.12
2019-02-08T01:52:31.867Z,5.00
2019-02-08T01:55:02.757Z,5.15
2019-02-08T01:57:33.728Z,3.77
2019-02-08T02:00:08.023Z,4.17
2019-02-08T02:02:39.022Z,3.72
2019-02-08T02:05:10.029Z,5.47
2019-02-08T02:07:40.992Z,8.03
2019-02-08T02:10:24.688Z,4.55
2019-02-08T02:12:55.755Z,5.95
2019-02-08T02:15:26.690Z,4.50
2019-02-08T02:17:57.873Z,4.35
2019-02-08T02:20:34.612Z,3.67
2019-02-08T02:23:06.575Z,3.87
2019-02-08T02:25:38.746Z,4.00
2019-02-08T02:28:10.204Z,6.33
2019-02-08T02:30:41.065Z,8.03
2019-02-08T02:33:13.968Z,4.92
2019-02-08T02:35:45.098Z,5.00
2019-02-08T02:38:16.066Z,5.90
2019-02-08T02:40:46.998Z,5.35
2019-02-08T02:43:17.965Z,14.80
2019-02-08T02:45:48.902Z,5.65
2019-02-08T02:48:20.862Z,4.90
2019-02-08T02:50:51.793Z,8.98
2019-02-08T02:53:23.177Z,14.00
2019-02-08T02:55:54.171Z,7.65
2019-02-08T02:58:25.134Z,3.92
2019-02-08T03:00:56.054Z,5.37
2019-02-08T03:03:27.018Z,4.90
2019-02-08T03:05:57.961Z,5.30
2019-02-08T03:08:28.921Z,11.55
2019-02-08T03:10:59.793Z,5.70
2019-02-08T03:13:31.759Z,6.40
2019-02-08T03:16:02.732Z,8.98
2019-02-08T03:18:33.701Z,6.08
2019-02-08T03:21:04.633Z,4.10
2019-02-08T03:23:35.593Z,3.33
2019-02-08T03:26:06.461Z,4.28
2019-02-08T03:28:37.430Z,8.18
2019-02-08T03:31:08.474Z,4.37
2019-02-08T03:33:39.511Z,3.85
2019-02-08T03:36:10.448Z,4.33
2019-02-08T03:38:41.414Z,4.78
2019-02-08T03:41:12.279Z,4.05
2019-02-08T03:43:43.241Z,2.40
2019-02-08T03:46:14.175Z,2.80
2019-02-08T03:48:45.066Z,3.42
2019-02-08T03:51:15.998Z,5.12
2019-02-08T03:53:46.904Z,3.62
2019-02-08T03:56:17.775Z,2.55
2019-02-08T03:58:48.801Z,2.70
2019-02-08T04:01:19.739Z,11.75
2019-02-08T04:03:51.233Z,3.87
2019-02-08T04:06:22.197Z,8.68
2019-02-08T04:08:53.133Z,6.72
2019-02-08T04:11:24.122Z,3.22
2019-02-08T04:13:55.103Z,3.17
2019-02-08T04:16:26.067Z,5.50
2019-02-08T04:18:57.002Z,4.00
2019-02-08T04:21:27.996Z,4.53
2019-02-08T04:23:58.926Z,4.25
2019-02-08T04:26:29.887Z,5.70
2019-02-08T04:29:00.819Z,4.55
2019-02-08T04:31:31.716Z,6.00
2019-02-08T04:34:02.657Z,8.45
2019-02-08T04:36:33.640Z,5.12
2019-02-08T04:39:06.776Z,4.08
2019-02-08T04:41:37.743Z,13.70
2019-02-08T04:44:08.679Z,3.30
2019-02-08T04:46:39.655Z,2.83
2019-02-08T04:49:10.614Z,4.12
2019-02-08T04:51:41.500Z,4.72
2019-02-08T04:54:12.466Z,3.60
2019-02-08T04:56:43.430Z,6.17
2019-02-08T04:59:14.326Z,8.68
2019-02-08T05:01:45.276Z,8.90
2019-02-08T05:04:16.237Z,3.45
2019-02-08T05:06:47.166Z,3.95
2019-02-08T05:09:18.126Z,6.80
2019-02-08T05:11:49.060Z,2.90
2019-02-08T05:14:20.023Z,6.87
2019-02-08T05:16:50.955Z,6.92
2019-02-08T05:19:21.927Z,6.62
2019-02-08T05:21:52.866Z,14.23
2019-02-08T05:24:23.759Z,6.97
2019-02-08T05:26:54.945Z,6.15
2019-02-08T05:29:25.920Z,11.33
2019-02-08T05:31:56.850Z,8.30
2019-02-08T05:34:27.818Z,5.58
2019-02-08T05:36:58.753Z,9.35
2019-02-08T05:39:29.717Z,5.87
2019-02-08T05:42:00.597Z,5.72
2019-02-08T05:44:31.555Z,7.65
2019-02-08T05:47:02.493Z,5.08
2019-02-08T05:49:33.472Z,6.47
2019-02-08T05:52:06.017Z,8.28
2019-02-08T05:54:37.060Z,4.67
2019-02-08T05:57:08.025Z,3.50
2019-02-08T05:59:38.932Z,12.28
2019-02-08T06:02:09.905Z,16.10
2019-02-08T06:04:40.778Z,13.35
2019-02-08T06:07:11.755Z,6.05
2019-02-08T06:09:42.701Z,8.78
2019-02-08T06:12:13.681Z,16.10
2019-02-08T06:14:44.623Z,5.50
2019-02-08T06:17:15.602Z,14.47
2019-02-08T06:19:46.553Z,55.60
2019-02-08T06:22:17.529Z,14.93
2019-02-08T06:24:48.572Z,5.83
2019-02-08T06:27:19.546Z,8.55
2019-02-08T06:29:50.489Z,14.07
2019-02-08T06:32:21.470Z,11.08
2019-02-08T06:34:52.413Z,11.40
2019-02-08T06:37:23.428Z,15.53
2019-02-08T06:39:54.376Z,12.37
2019-02-08T06:42:25.286Z,17.17
2019-02-08T06:44:56.235Z,18.70
2019-02-08T06:47:27.207Z,11.30
2019-02-08T06:49:58.185Z,17.48
2019-02-08T06:52:29.154Z,4.92
2019-02-08T06:55:00.231Z,16.30
2019-02-08T06:57:32.852Z,6.45
2019-02-08T07:00:07.192Z,3.75
2019-02-08T07:02:45.341Z,7.17
2019-02-08T07:05:26.810Z,5.67
2019-02-08T07:08:02.282Z,6.65
2019-02-08T07:10:47.948Z,4.95
2019-02-08T07:13:20.492Z,9.18
2019-02-08T07:16:07.851Z,7.65
2019-02-08T07:18:40.400Z,13.55
2019-02-08T07:21:28.704Z,7.83
2019-02-08T07:24:02.423Z,7.67
2019-02-08T07:26:41.744Z,10.95
2019-02-08T07:29:16.962Z,16.80
2019-02-08T07:32:05.349Z,4.22
2019-02-08T07:34:37.980Z,5.45
2019-02-08T07:37:10.480Z,10.58
2019-02-08T07:39:54.515Z,14.70
2019-02-08T07:42:43.284Z,2.87
2019-02-08T07:45:16.219Z,8.30
2019-02-08T07:47:51.870Z,10.43
2019-02-08T07:50:33.637Z,6.55
2019-02-08T07:53:06.574Z,7.33
2019-02-08T07:55:39.153Z,17.10
2019-02-08T07:58:14.465Z,2.70
2019-02-08T08:00:52.702Z,9.88
2019-02-08T08:03:25.238Z,9.10
2019-02-08T08:06:00.964Z,4.20
2019-02-08T08:08:49.348Z,11.00
2019-02-08T08:11:27.944Z,4.78
2019-02-08T08:14:04.466Z,13.78
2019-02-08T08:16:38.125Z,2.90
2019-02-08T08:19:13.532Z,4.03
2019-02-08T08:21:46.180Z,4.55
2019-02-08T08:24:27.521Z,6.12
2019-02-08T08:27:01.322Z,2.83
2019-02-08T08:29:39.354Z,4.15
2019-02-08T08:32:17.774Z,2.05
2019-02-08T08:35:15.212Z,4.30
2019-02-08T08:38:02.239Z,1.85
2019-02-08T08:40:55.485Z,2.35
2019-02-08T08:44:18.589Z,0.93
2019-02-08T08:47:37.165Z,4.47
2019-02-08T08:50:32.015Z,5.97
2019-02-08T08:53:23.411Z,5.58
2019-02-08T08:56:07.212Z,2.60
2019-02-08T08:59:10.641Z,4.85
2019-02-08T09:02:16.632Z,1.07
2019-02-08T09:04:54.527Z,3.15
2019-02-08T09:07:44.338Z,2.22
2019-02-08T09:10:28.234Z,1.20
2019-02-08T09:13:47.009Z,1.25
2019-02-08T09:17:11.837Z,1.20
2019-02-08T09:20:18.876Z,7.37
2019-02-08T09:23:06.021Z,1.90
2019-02-08T09:26:06.592Z,3.75
2019-02-08T09:29:02.346Z,5.65
2019-02-08T09:32:07.390Z,3.90
2019-02-08T09:35:12.471Z,1.45
2019-02-08T09:38:13.144Z,2.37
2019-02-08T09:41:13.206Z,2.30
2019-02-08T09:44:24.140Z,0.82
2019-02-08T09:47:36.695Z,1.10
2019-02-08T09:50:17.723Z,3.75
2019-02-08T09:53:04.658Z,1.62
2019-02-08T09:56:14.125Z,5.10
2019-02-08T09:59:07.400Z,4.05
2019-02-08T10:02:03.507Z,2.50
2019-02-08T10:04:50.568Z,4.67
2019-02-08T10:07:31.723Z,1.15
2019-02-08T10:10:48.838Z,0.60
2019-02-08T10:13:46.545Z,3.17
2019-02-08T10:16:39.452Z,2.50
2019-02-08T10:19:39.508Z,1.75
2019-02-08T10:22:26.595Z,2.00
2019-02-08T10:25:19.718Z,1.37
2019-02-08T10:28:17.117Z,2.33
2019-02-08T10:31:29.827Z,4.65
2019-02-08T10:34:36.296Z,3.33
2019-02-08T10:37:44.071Z,2.10
2019-02-08T10:40:38.523Z,50.58
2019-02-08T10:43:22.464Z,2.85
2019-02-08T10:46:23.001Z,5.00
2019-02-08T10:49:42.985Z,0.70
2019-02-08T10:52:51.231Z,2.35
2019-02-08T10:55:57.989Z,4.50
2019-02-08T10:58:55.436Z,2.87
2019-02-08T11:01:41.961Z,0.60
2019-02-08T11:05:04.444Z,2.15
2019-02-08T11:08:05.145Z,4.47
2019-02-08T11:11:14.618Z,5.70
2019-02-08T11:14:01.558Z,0.93
2019-02-08T11:17:13.645Z,0.62
2019-02-08T11:19:43.838Z,2.35
2019-02-08T11:22:14.808Z,0.75
2019-02-08T11:24:45.745Z,0.50
2019-02-08T11:27:16.704Z,3.45
2019-02-08T11:29:47.730Z,2.85
2019-02-08T11:32:19.147Z,4.10
2019-02-08T11:34:50.120Z,1.52
2019-02-08T11:37:21.062Z,1.77
2019-02-08T11:39:52.033Z,2.12
2019-02-08T11:42:22.903Z,2.35
2019-02-08T11:44:53.807Z,2.30
2019-02-08T11:47:24.753Z,9.68
2019-02-08T11:49:55.663Z,2.45
2019-02-08T11:52:26.598Z,3.55
2019-02-08T11:54:57.576Z,3.87
2019-02-08T11:57:28.541Z,2.77
2019-02-08T11:59:59.437Z,3.65
2019-02-08T12:02:30.415Z,6.92
2019-02-08T12:05:01.380Z,7.53
2019-02-08T12:07:32.355Z,4.00
2019-02-08T12:10:06.827Z,2.37
2019-02-08T12:12:37.804Z,4.22
2019-02-08T12:15:15.790Z,2.22
2019-02-08T12:17:46.764Z,11.00
2019-02-08T12:20:17.840Z,4.67
2019-02-08T12:22:48.811Z,10.93
2019-02-08T12:25:19.679Z,4.50
2019-02-08T12:27:50.653Z,9.08
2019-02-08T12:30:43.216Z,11.97
2019-02-08T12:33:14.189Z,3.27
2019-02-08T12:35:45.058Z,2.05
2019-02-08T12:38:16.029Z,1.67
2019-02-08T12:40:47.070Z,4.95
2019-02-08T12:43:18.041Z,1.67
2019-02-08T12:45:48.912Z,7.25
2019-02-08T12:48:19.882Z,5.90
2019-02-08T12:50:50.818Z,7.65
2019-02-08T12:53:21.783Z,3.85
2019-02-08T12:55:52.756Z,3.47
2019-02-08T12:58:23.770Z,1.80
2019-02-08T13:00:54.718Z,4.05
2019-02-08T13:03:25.684Z,2.50
2019-02-08T13:05:56.620Z,3.75
2019-02-08T13:08:27.594Z,6.45
2019-02-08T13:10:58.507Z,0.60
2019-02-08T13:13:29.520Z,1.25
2019-02-08T13:16:00.466Z,1.67
2019-02-08T13:18:31.439Z,3.95
2019-02-08T13:21:02.403Z,2.10
2019-02-08T13:23:33.402Z,3.85
2019-02-08T13:26:04.377Z,1.50
2019-02-08T13:28:35.329Z,2.75
2019-02-08T13:31:06.217Z,4.42
2019-02-08T13:33:37.157Z,2.00
2019-02-08T13:36:12.290Z,1.98
2019-02-08T13:38:43.230Z,2.35
2019-02-08T13:41:14.212Z,6.97
2019-02-08T13:43:45.092Z,7.60
2019-02-08T13:46:16.072Z,4.85
2019-02-08T13:48:47.012Z,1.67
2019-02-08T13:51:17.994Z,1.30
2019-02-08T13:53:48.926Z,7.53
2019-02-08T13:56:19.900Z,1.55
2019-02-08T13:58:50.839Z,3.70
2019-02-08T14:01:21.809Z,1.50
2019-02-08T14:03:53.626Z,1.20
2019-02-08T14:06:24.873Z,4.33
2019-02-08T14:08:56.022Z,3.72
2019-02-08T14:11:30.075Z,1.87
2019-02-08T14:14:02.537Z,2.77
2019-02-08T14:16:33.606Z,5.53
2019-02-08T14:19:04.573Z,8.50
2019-02-08T14:21:35.523Z,7.20
2019-02-08T14:24:06.583Z,8.80
2019-02-08T14:26:37.528Z,1.70
2019-02-08T14:29:08.498Z,1.17
2019-02-08T14:31:39.440Z,4.73
2019-02-08T14:34:10.352Z,3.22
2019-02-08T14:36:41.290Z,3.00
2019-02-08T14:39:12.368Z,2.00
2019-02-08T14:41:43.310Z,1.47
2019-02-08T14:44:14.287Z,14.68
2019-02-08T14:46:45.239Z,5.08
2019-02-08T14:49:16.240Z,0.90
2019-02-08T14:51:47.187Z,4.13
2019-02-08T14:54:18.167Z,3.50
2019-02-08T14:56:49.114Z,3.83
2019-02-08T14:59:20.131Z,6.57
2019-02-08T15:01:51.132Z,5.30
2019-02-08T15:04:22.012Z,3.13
2019-02-08T15:06:52.915Z,13.38
2019-02-08T15:09:23.970Z,13.70
2019-02-08T15:11:54.949Z,8.58
2019-02-08T15:14:25.887Z,3.83
2019-02-08T15:16:56.791Z,3.87
2019-02-08T15:19:27.733Z,2.70
2019-02-08T15:21:58.718Z,7.17
2019-02-08T15:24:29.661Z,5.60
2019-02-08T15:27:00.624Z,1.77
2019-02-08T15:29:31.664Z,3.45
2019-02-08T15:32:02.715Z,7.75
2019-02-08T15:34:34.667Z,10.60
2019-02-08T15:37:05.734Z,18.55
2019-02-08T15:39:36.742Z,6.00
2019-02-08T15:42:07.713Z,48.00
2019-02-08T15:44:39.636Z,7.12
2019-02-08T15:47:10.606Z,14.30
2019-02-08T15:49:41.618Z,9.30
2019-02-08T15:52:12.577Z,5.45
2019-02-08T15:54:44.215Z,9.48
2019-02-08T15:57:15.220Z,5.78
2019-02-08T15:59:46.238Z,12.10
2019-02-08T16:02:17.100Z,7.62
2019-02-08T16:04:48.059Z,17.65
2019-02-08T16:07:19.012Z,12.03
2019-02-08T16:09:50.036Z,4.10
2019-02-08T16:12:21.051Z,6.55
2019-02-08T16:14:52.059Z,8.73
2019-02-08T16:17:22.989Z,5.85
2019-02-08T16:19:54.063Z,3.33
2019-02-08T16:22:24.992Z,9.53
2019-02-08T16:24:55.952Z,7.42
2019-02-08T16:27:26.896Z,6.95
2019-02-08T16:29:57.858Z,4.80
2019-02-08T16:32:28.715Z,4.20
2019-02-08T16:35:00.595Z,6.78
2019-02-08T16:37:31.507Z,11.95
2019-02-08T16:40:02.460Z,3.62
2019-02-08T16:42:33.391Z,9.48
2019-02-08T16:45:07.758Z,5.00
2019-02-08T16:47:38.709Z,12.00
2019-02-08T16:50:23.487Z,13.80
2019-02-08T16:52:54.600Z,15.48
2019-02-08T16:55:25.549Z,24.00
2019-02-08T16:57:56.607Z,24.57
2019-02-08T17:00:33.979Z,8.05
2019-02-08T17:03:12.181Z,10.48
2019-02-08T17:05:43.269Z,6.15
2019-02-08T17:08:14.128Z,8.50
2019-02-08T17:10:45.028Z,14.33
2019-02-08T17:13:16.004Z,10.48
2019-02-08T17:15:46.945Z,7.83
2019-02-08T17:18:17.902Z,8.93
2019-02-08T17:20:50.738Z,22.20
2019-02-08T17:23:21.711Z,8.20
2019-02-08T17:25:52.705Z,6.00
2019-02-08T17:28:23.670Z,7.40
2019-02-08T17:30:54.600Z,5.45
2019-02-08T17:33:25.599Z,14.93
2019-02-08T17:35:56.530Z,4.58
2019-02-08T17:38:27.645Z,9.60
2019-02-08T17:40:58.685Z,12.23
2019-02-08T17:43:29.701Z,12.28
2019-02-08T17:46:00.630Z,9.85
2019-02-08T17:48:31.619Z,8.33
2019-02-08T17:51:02.548Z,9.08
2019-02-08T17:53:33.506Z,7.87
2019-02-08T17:56:04.435Z,9.38
2019-02-08T17:58:35.394Z,3.35
2019-02-08T18:01:06.725Z,8.38
2019-02-08T18:03:37.700Z,8.78
2019-02-08T18:06:08.635Z,6.15
2019-02-08T18:08:39.597Z,4.62
2019-02-08T18:11:10.634Z,6.20
2019-02-08T18:13:41.625Z,10.98
2019-02-08T18:16:14.168Z,8.18
2019-02-08T18:18:45.183Z,9.93
2019-02-08T18:21:16.150Z,8.63
2019-02-08T18:23:47.178Z,9.18
2019-02-08T18:26:18.144Z,10.10
2019-02-08T18:28:49.077Z,9.20
2019-02-08T18:31:20.050Z,16.67
2019-02-08T18:33:50.986Z,16.60
2019-02-08T18:36:21.960Z,17.67
2019-02-08T18:38:52.905Z,18.60
2019-02-08T18:41:23.889Z,19.02
2019-02-08T18:43:54.841Z,28.87
2019-02-08T18:46:25.748Z,27.25
2019-02-08T18:48:56.693Z,20.43
2019-02-08T18:51:27.603Z,24.15
2019-02-08T18:53:58.591Z,22.50
2019-02-08T18:56:29.563Z,20.90
2019-02-08T18:59:00.510Z,19.57
2019-02-08T19:01:31.500Z,23.90
2019-02-08T19:04:02.529Z,31.68
2019-02-08T19:06:33.476Z,37.48
2019-02-08T19:09:06.830Z,25.77
2019-02-08T19:11:37.881Z,23.87
2019-02-08T19:14:08.854Z,23.95
2019-02-08T19:16:41.483Z,75.47
2019-02-08T19:19:12.554Z,36.40
2019-02-08T19:21:43.504Z,27.58
2019-02-08T19:24:14.524Z,28.85
2019-02-08T19:26:45.529Z,20.40
2019-02-08T19:29:16.512Z,23.57
2019-02-08T19:31:47.460Z,25.05
2019-02-08T19:34:18.446Z,20.55
2019-02-08T19:36:49.401Z,19.70
2019-02-08T19:39:20.392Z,23.55
2019-02-08T19:41:51.348Z,17.37
2019-02-08T19:44:22.311Z,23.32
2019-02-08T19:46:53.364Z,20.48
2019-02-08T19:49:24.382Z,23.30
2019-02-08T19:51:55.367Z,21.85
2019-02-08T19:54:26.313Z,32.78
2019-02-08T19:56:57.291Z,24.70
2019-02-08T19:59:28.240Z,24.30
2019-02-08T20:01:59.278Z,29.72
2019-02-08T20:04:30.191Z,18.80
2019-02-08T20:07:01.208Z,21.87
2019-02-08T20:09:32.146Z,19.42
2019-02-08T20:12:03.116Z,18.65
2019-02-08T20:14:34.179Z,22.05
2019-02-08T20:17:05.250Z,18.37
2019-02-08T20:19:36.195Z,14.87
2019-02-08T20:22:07.267Z,20.00
2019-02-08T20:24:38.226Z,21.65
2019-02-08T20:27:09.203Z,15.93
2019-02-08T20:29:40.196Z,19.73
2019-02-08T20:32:11.185Z,15.18
2019-02-08T20:34:42.167Z,19.15
2019-02-08T20:37:13.255Z,17.00
2019-02-08T20:39:44.384Z,17.45
2019-02-08T20:42:16.465Z,15.75
2019-02-08T20:44:47.694Z,19.90
2019-02-08T20:47:19.676Z,20.32
2019-02-08T20:49:50.645Z,22.50
2019-02-08T20:52:21.595Z,19.52
2019-02-08T20:54:52.510Z,17.80
2019-02-08T20:57:23.462Z,16.32
2019-02-08T20:59:54.441Z,16.60
2019-02-08T21:02:25.560Z,15.13
2019-02-08T21:04:56.540Z,17.10
2019-02-08T21:07:27.480Z,18.95
2019-02-08T21:09:58.458Z,15.98
2019-02-08T21:12:29.409Z,18.77
2019-02-08T21:15:01.938Z,24.95
2019-02-08T21:17:33.541Z,20.05
2019-02-08T21:20:07.515Z,20.80
2019-02-08T21:22:38.454Z,15.08
2019-02-08T21:25:13.936Z,20.72
2019-02-08T21:27:44.889Z,18.85
2019-02-08T21:30:17.934Z,19.52
2019-02-08T21:32:48.876Z,14.30
2019-02-08T21:35:20.652Z,17.40
2019-02-08T21:37:51.763Z,16.02
2019-02-08T21:40:34.866Z,13.18
2019-02-08T21:43:06.842Z,13.75
2019-02-08T21:45:43.504Z,13.93
2019-02-08T21:48:15.241Z,10.53
2019-02-08T21:50:46.320Z,10.55
2019-02-08T21:53:18.284Z,14.60
2019-02-08T21:55:49.220Z,10.30
2019-02-08T21:58:20.201Z,19.05
2019-02-08T22:00:51.142Z,17.67
2019-02-08T22:03:22.122Z,8.28
2019-02-08T22:05:58.293Z,7.60
2019-02-08T22:08:29.265Z,13.28
2019-02-08T22:11:00.220Z,12.88
2019-02-08T22:13:31.201Z,9.55
2019-02-08T22:16:02.148Z,9.03
2019-02-08T22:18:33.145Z,15.48
2019-02-08T22:21:04.146Z,9.75
2019-02-08T22:23:35.171Z,8.78
2019-02-08T22:26:06.251Z,8.83
2019-02-08T22:28:37.195Z,6.10
2019-02-08T22:31:08.092Z,12.75
2019-02-08T22:33:38.972Z,11.63
2019-02-08T22:36:09.948Z,7.50
2019-02-08T22:38:40.824Z,10.60
2019-02-08T22:41:11.802Z,8.03
2019-02-08T22:43:42.744Z,8.48
2019-02-08T22:46:13.718Z,6.33
2019-02-08T22:48:44.657Z,9.98
2019-02-08T22:51:15.619Z,7.60
2019-02-08T22:53:46.551Z,8.18
2019-02-08T22:56:17.519Z,6.67
2019-02-08T22:58:48.469Z,7.47
2019-02-08T23:01:27.610Z,7.78
2019-02-08T23:03:58.549Z,7.92
2019-02-08T23:06:29.522Z,7.65
2019-02-08T23:09:00.450Z,10.95
2019-02-08T23:11:33.164Z,5.37
2019-02-08T23:14:04.367Z,9.70
2019-02-08T23:16:35.308Z,11.88
2019-02-08T23:19:06.681Z,7.67
2019-02-08T23:21:37.612Z,6.87
2019-02-08T23:24:08.622Z,7.92
2019-02-08T23:26:39.554Z,7.55
2019-02-08T23:29:10.456Z,5.22
2019-02-08T23:31:41.385Z,9.78
2019-02-08T23:34:12.280Z,4.40
2019-02-08T23:36:43.208Z,4.70
2019-02-08T23:39:14.341Z,10.40
2019-02-08T23:41:45.276Z,4.35
2019-02-08T23:44:16.239Z,6.78
2019-02-08T23:46:47.177Z,3.92
2019-02-08T23:49:19.347Z,6.17
2019-02-08T23:51:50.286Z,5.70
2019-02-08T23:54:21.251Z,3.37
2019-02-08T23:56:52.188Z,9.20
2019-02-08T23:59:23.165Z,6.55
